Belo Vale, Brazil
Current Conditions -  °F | °C
As of 1:00 PM on Thursday 30 Oct 2014 (Local Time) from SBBH Reporting Station
Light Rain Light Rain  
Wind Chill: 72°   Ceiling: 3000
Heat Index: 72°   Visibility: 6mi
Dew Point: 64°   Wind: 3mph
Humidity: 78%   Direction: 250°WSW
Pressure: 30.03"   Gusts: NA
Location:  20.41°S, 44.02°W
Report Text: SBBH 301500Z 25003KT 9999 -RA SCT012 BKN030 OVC090 22/18 Q1017
Loading
Personal Weather Stations






























Interactive Weather Map
Tropical Storm Tracking
New forecast layout! Learn more

10-Day Weather Forecast

Advertisements
Track Severe Weather on mobile